createdAt,value
2023-04-26T00:02:05.758Z,100841.91
2023-04-26T00:04:39.328Z,100853.28
2023-04-26T00:07:07.853Z,100850.47
2023-04-26T00:09:35.728Z,100852.56
2023-04-26T00:12:03.379Z,100838.41
2023-04-26T00:14:31.032Z,100845.72
2023-04-26T00:16:58.707Z,100851.88
2023-04-26T00:19:27.805Z,100845.44
2023-04-26T00:21:55.477Z,100840.81
2023-04-26T00:24:23.187Z,100850.38
2023-04-26T00:26:50.855Z,100851.22
2023-04-26T00:29:18.552Z,100853.31
2023-04-26T00:31:46.312Z,100863.53
2023-04-26T00:34:14.036Z,100850.53
2023-04-26T00:36:43.131Z,100848.53
2023-04-26T00:39:11.072Z,100838.38
2023-04-26T00:41:38.823Z,100840.75
2023-04-26T00:44:06.761Z,100833.50
2023-04-26T00:46:34.469Z,100837.09
2023-04-26T00:49:02.160Z,100819.97
2023-04-26T00:51:29.929Z,100830.56
2023-04-26T00:53:59.153Z,100835.00
2023-04-26T00:56:27.360Z,100827.34
2023-04-26T00:58:55.284Z,100817.53
2023-04-26T01:01:23.327Z,100820.22
2023-04-26T01:03:51.199Z,100819.16
2023-04-26T01:06:19.128Z,100825.38
2023-04-26T01:08:46.931Z,100836.03
2023-04-26T01:11:16.098Z,100837.53
2023-04-26T01:13:43.844Z,100825.25
2023-04-26T01:16:11.759Z,100827.78
2023-04-26T01:18:39.476Z,100819.19
2023-04-26T01:21:08.928Z,100822.97
2023-04-26T01:23:38.009Z,100832.75
2023-04-26T01:26:05.684Z,100830.28
2023-04-26T01:28:35.504Z,100846.72
2023-04-26T01:31:03.230Z,100840.75
2023-04-26T01:33:30.886Z,100841.44
2023-04-26T01:35:58.749Z,100836.28
2023-04-26T01:38:26.468Z,100841.50
2023-04-26T01:40:55.525Z,100836.63
2023-04-26T01:43:23.534Z,100836.91
2023-04-26T01:45:51.312Z,100837.75
2023-04-26T01:48:18.945Z,100833.81
2023-04-26T01:50:46.823Z,100839.84
2023-04-26T01:53:14.715Z,100835.94
2023-04-26T01:55:42.316Z,100832.81
2023-04-26T01:58:11.396Z,100833.19
2023-04-26T02:00:39.083Z,100828.84
2023-04-26T02:03:06.852Z,100830.56
2023-04-26T02:05:35.347Z,100844.16
2023-04-26T02:08:03.151Z,100838.81
2023-04-26T02:10:30.880Z,100836.63
2023-04-26T02:12:58.520Z,100847.13
2023-04-26T02:15:27.552Z,100826.09
2023-04-26T02:17:55.644Z,100828.06
2023-04-26T02:20:23.461Z,100834.38
2023-04-26T02:22:51.132Z,100856.41
2023-04-26T02:25:18.964Z,100854.66
2023-04-26T02:27:46.659Z,100831.72
2023-04-26T02:30:14.678Z,100837.69
2023-04-26T02:32:43.852Z,100857.81
2023-04-26T02:35:11.812Z,100867.56
2023-04-26T02:37:39.474Z,100859.75
2023-04-26T02:40:22.929Z,100842.81
2023-04-26T02:42:50.637Z,100837.84
2023-04-26T02:45:18.418Z,100846.31
2023-04-26T02:47:47.527Z,100842.88
2023-04-26T02:50:15.265Z,100849.56
2023-04-26T02:52:42.934Z,100842.94
2023-04-26T02:55:10.945Z,100859.28
2023-04-26T02:57:38.608Z,100849.00
2023-04-26T03:00:08.188Z,100848.97
2023-04-26T03:02:36.623Z,100842.44
2023-04-26T03:05:06.492Z,100841.97
2023-04-26T03:07:34.206Z,100840.22
2023-04-26T03:10:01.968Z,100835.97
2023-04-26T03:12:29.589Z,100830.38
2023-04-26T03:14:57.493Z,100852.28
2023-04-26T03:17:25.148Z,100851.78
2023-04-26T03:19:52.907Z,100856.38
2023-04-26T03:22:22.698Z,100843.31
2023-04-26T03:24:50.980Z,100842.63
2023-04-26T03:27:18.583Z,100847.56
2023-04-26T03:29:46.194Z,100844.81
2023-04-26T03:32:13.902Z,100841.34
2023-04-26T03:34:41.562Z,100849.81
2023-04-26T03:37:09.176Z,100838.56
2023-04-26T03:39:38.319Z,100842.41
2023-04-26T03:42:06.230Z,100827.47
2023-04-26T03:44:34.009Z,100840.47
2023-04-26T03:47:01.686Z,100828.94
2023-04-26T03:49:29.313Z,100816.22
2023-04-26T03:51:57.285Z,100831.69
2023-04-26T03:54:24.921Z,100824.94
2023-04-26T03:56:54.032Z,100830.66
2023-04-26T03:59:21.678Z,100849.31
2023-04-26T04:01:49.370Z,100824.94
2023-04-26T04:04:17.293Z,100839.28
2023-04-26T04:06:45.224Z,100821.63
2023-04-26T04:09:12.933Z,100830.47
2023-04-26T04:11:40.621Z,100841.19
2023-04-26T04:14:09.627Z,100823.22
2023-04-26T04:16:37.278Z,100835.38
2023-04-26T04:19:05.173Z,100832.56
2023-04-26T04:21:32.860Z,100830.13
2023-04-26T04:24:00.732Z,100821.25
2023-04-26T04:26:29.143Z,100829.13
2023-04-26T04:28:57.569Z,100832.84
2023-04-26T04:31:26.666Z,100833.81
2023-04-26T04:33:54.360Z,100832.38
2023-04-26T04:36:22.084Z,100830.66
2023-04-26T04:38:49.988Z,100834.91
2023-04-26T04:41:17.940Z,100837.97
2023-04-26T04:43:45.656Z,100827.38
2023-04-26T04:46:13.400Z,100838.34
2023-04-26T04:48:43.305Z,100824.22
2023-04-26T04:51:11.002Z,100828.97
2023-04-26T04:53:38.668Z,100839.47
2023-04-26T04:56:07.712Z,100848.63
2023-04-26T04:58:36.129Z,100847.56
2023-04-26T05:01:03.802Z,100835.97
2023-04-26T05:03:33.828Z,100846.31
2023-04-26T05:06:03.123Z,100844.88
2023-04-26T05:08:31.291Z,100835.16
2023-04-26T05:10:59.331Z,100829.50
2023-04-26T05:13:26.942Z,100858.09
2023-04-26T05:15:54.674Z,100837.66
2023-04-26T05:18:22.930Z,100852.19
2023-04-26T05:20:50.575Z,100856.47
2023-04-26T05:23:19.640Z,100866.63
2023-04-26T05:25:47.289Z,100844.94
2023-04-26T05:28:14.991Z,100854.72
2023-04-26T05:30:42.728Z,100855.25
2023-04-26T05:33:11.151Z,100862.09
2023-04-26T05:35:38.915Z,100859.09
2023-04-26T05:38:06.592Z,100863.88
2023-04-26T05:40:35.676Z,100874.75
2023-04-26T05:43:03.404Z,100877.72
2023-04-26T05:45:31.086Z,100874.78
2023-04-26T05:47:58.830Z,100856.03
2023-04-26T05:50:26.639Z,100886.47
2023-04-26T05:52:54.330Z,100881.63
2023-04-26T05:55:22.306Z,100886.47
2023-04-26T05:57:51.537Z,100868.06
2023-04-26T06:00:22.723Z,100874.59
2023-04-26T06:02:51.785Z,100886.06
2023-04-26T06:05:20.064Z,100881.84
2023-04-26T06:07:47.817Z,100893.69
2023-04-26T06:10:17.757Z,100897.00
2023-04-26T06:12:45.958Z,100889.03
2023-04-26T06:15:15.154Z,100900.78
2023-04-26T06:17:43.028Z,100899.28
2023-04-26T06:20:11.343Z,100918.88
2023-04-26T06:23:00.660Z,100911.91
2023-04-26T06:25:28.296Z,100901.00
2023-04-26T06:27:56.103Z,100891.81
2023-04-26T06:30:25.461Z,100908.84
2023-04-26T06:32:53.205Z,100895.53
2023-04-26T06:35:21.163Z,100893.06
2023-04-26T06:37:49.060Z,100908.06
2023-04-26T06:40:17.236Z,100910.03
2023-04-26T06:42:44.978Z,100904.22
2023-04-26T06:45:13.084Z,100912.03
2023-04-26T06:47:42.178Z,100909.69
2023-04-26T06:50:11.180Z,100915.25
2023-04-26T06:52:38.869Z,100907.41
2023-04-26T06:55:07.478Z,100922.34
2023-04-26T06:57:35.198Z,100902.31
2023-04-26T07:00:03.608Z,100922.63
2023-04-26T07:02:31.727Z,100927.56
2023-04-26T07:05:01.010Z,100911.69
2023-04-26T07:07:28.792Z,100901.59
2023-04-26T07:09:56.521Z,100931.09
2023-04-26T07:12:24.212Z,100915.66
2023-04-26T07:14:51.900Z,100906.53
2023-04-26T07:17:19.782Z,100928.31
2023-04-26T07:19:47.452Z,100928.88
2023-04-26T07:22:16.604Z,100937.41
2023-04-26T07:24:44.470Z,100925.59
2023-04-26T07:27:12.158Z,100939.34
2023-04-26T07:29:40.147Z,100941.34
2023-04-26T07:32:07.875Z,100918.78
2023-04-26T07:34:35.682Z,100920.72
2023-04-26T07:37:03.398Z,100931.47
2023-04-26T07:39:32.519Z,100941.22
2023-04-26T07:42:00.349Z,100941.59
2023-04-26T07:44:28.606Z,100941.81
2023-04-26T07:46:56.379Z,100938.31
2023-04-26T07:49:24.240Z,100950.19
2023-04-26T07:51:52.558Z,100926.88
2023-04-26T07:54:20.421Z,100921.63
2023-04-26T07:56:49.507Z,100929.66
2023-04-26T07:59:17.490Z,100934.97
2023-04-26T08:01:45.282Z,100945.94
2023-04-26T08:04:13.408Z,100949.13
2023-04-26T08:06:45.022Z,100920.53
2023-04-26T08:09:12.780Z,100939.00
2023-04-26T08:11:41.871Z,100920.78
2023-04-26T08:14:11.932Z,100945.81
2023-04-26T08:16:39.589Z,100922.66
2023-04-26T08:19:07.322Z,100933.88
2023-04-26T08:21:35.030Z,100953.94
2023-04-26T08:24:02.765Z,100955.81
2023-04-26T08:26:30.432Z,100938.59
2023-04-26T08:28:58.388Z,100942.78
2023-04-26T08:31:27.783Z,100954.06
2023-04-26T08:33:55.640Z,100925.56
2023-04-26T08:36:23.361Z,100918.03
2023-04-26T08:38:51.214Z,100942.22
2023-04-26T08:41:24.582Z,100917.31
2023-04-26T08:43:52.883Z,100934.06
2023-04-26T08:46:21.669Z,100926.56
2023-04-26T08:49:10.276Z,100915.16
2023-04-26T08:51:38.394Z,100916.63
2023-04-26T08:54:07.739Z,100924.47
2023-04-26T08:56:36.388Z,100921.72
2023-04-26T08:59:04.258Z,100922.13
2023-04-26T09:01:32.917Z,100939.72
2023-04-26T09:04:03.072Z,100920.06
2023-04-26T09:06:31.292Z,100926.88
2023-04-26T09:08:59.341Z,100934.41
2023-04-26T09:11:27.025Z,100952.94
2023-04-26T09:13:55.025Z,100949.81
2023-04-26T09:16:36.151Z,100952.78
2023-04-26T09:19:05.317Z,100958.56
2023-04-26T09:21:33.502Z,100950.78
2023-04-26T09:24:05.038Z,100947.50
2023-04-26T09:26:33.297Z,100950.41
2023-04-26T09:29:14.634Z,100941.63
2023-04-26T09:31:46.364Z,100936.50
2023-04-26T09:34:16.956Z,100925.22
2023-04-26T09:36:49.277Z,100954.88
2023-04-26T09:39:17.508Z,100949.25
2023-04-26T09:41:45.852Z,100954.19
2023-04-26T09:44:23.321Z,100951.22
2023-04-26T09:47:02.212Z,100951.53
2023-04-26T09:49:33.355Z,100932.97
2023-04-26T09:52:02.493Z,100922.84
2023-04-26T09:54:40.955Z,100925.31
2023-04-26T09:57:08.831Z,100942.22
2023-04-26T09:59:44.075Z,100926.25
2023-04-26T10:02:17.700Z,100928.03
2023-04-26T10:04:49.054Z,100926.56
2023-04-26T10:10:04.270Z,100927.09
2023-04-26T10:12:32.062Z,100922.91
2023-04-26T10:14:59.882Z,100918.91
2023-04-26T10:17:27.693Z,100920.69
2023-04-26T10:19:59.229Z,100928.59
2023-04-26T10:22:30.546Z,100942.09
2023-04-26T10:25:00.458Z,100917.81
2023-04-26T10:27:54.768Z,100930.31
2023-04-26T10:30:27.021Z,100911.50
2023-04-26T10:33:16.287Z,100910.69
2023-04-26T10:36:06.657Z,100905.88
2023-04-26T10:38:35.871Z,100913.88
2023-04-26T10:41:56.392Z,100915.47
2023-04-26T10:44:45.484Z,100913.66
2023-04-26T10:47:26.535Z,100918.34
2023-04-26T10:49:54.460Z,100903.91
2023-04-26T10:52:24.427Z,100913.50
2023-04-26T10:54:54.773Z,100904.66
2023-04-26T10:57:24.062Z,100895.13
2023-04-26T11:00:17.281Z,100915.56
2023-04-26T11:02:56.489Z,100915.47
2023-04-26T11:05:41.073Z,100916.06
2023-04-26T11:08:17.964Z,100916.09
2023-04-26T11:10:51.213Z,100904.81
2023-04-26T11:13:19.445Z,100893.53
2023-04-26T11:15:49.138Z,100891.44
2023-04-26T11:18:22.469Z,100902.59
2023-04-26T11:20:50.564Z,100897.09
2023-04-26T11:23:21.310Z,100897.50
2023-04-26T11:25:49.558Z,100898.13
2023-04-26T11:28:17.427Z,100900.34
2023-04-26T11:30:45.409Z,100919.59
2023-04-26T11:33:19.017Z,100911.03
2023-04-26T11:35:47.671Z,100901.78
2023-04-26T11:38:15.696Z,100902.94
2023-04-26T11:40:45.627Z,100915.84
2023-04-26T11:43:15.613Z,100916.28
2023-04-26T11:45:43.525Z,100916.91
2023-04-26T11:48:12.575Z,100920.06
2023-04-26T11:50:41.274Z,100935.75
2023-04-26T11:53:10.121Z,100927.59
2023-04-26T11:55:37.869Z,100905.91
2023-04-26T11:58:14.167Z,100930.78
2023-04-26T12:00:58.085Z,100909.53
2023-04-26T12:03:30.764Z,100902.66
2023-04-26T12:05:58.855Z,100908.56
2023-04-26T12:08:27.089Z,100907.44
2023-04-26T12:10:55.157Z,100911.53
2023-04-26T12:13:26.169Z,100919.94
2023-04-26T12:15:54.240Z,100923.97
2023-04-26T12:18:23.701Z,100908.56
2023-04-26T12:20:52.060Z,100916.91
2023-04-26T12:23:40.949Z,100912.13
2023-04-26T12:26:11.237Z,100928.50
2023-04-26T12:28:41.356Z,100930.59
2023-04-26T12:31:09.395Z,100936.31
2023-04-26T12:33:37.490Z,100932.38
2023-04-26T12:36:09.542Z,100920.03
2023-04-26T12:38:37.412Z,100933.72
2023-04-26T12:41:05.330Z,100944.66
2023-04-26T12:43:33.087Z,100946.09
2023-04-26T12:46:02.432Z,100934.03
2023-04-26T12:48:30.216Z,100923.94
2023-04-26T12:50:58.129Z,100931.00
2023-04-26T12:53:25.923Z,100941.84
2023-04-26T12:55:53.662Z,100936.72
2023-04-26T12:58:22.497Z,100928.31
2023-04-26T13:00:55.967Z,100908.34
2023-04-26T13:03:25.329Z,100911.84
2023-04-26T13:05:53.489Z,100914.44
2023-04-26T13:08:22.628Z,100932.06
2023-04-26T13:10:50.349Z,100912.81
2023-04-26T13:13:19.198Z,100933.47
2023-04-26T13:15:46.995Z,100921.81
2023-04-26T13:18:16.068Z,100917.63
2023-04-26T13:20:45.711Z,100906.00
2023-04-26T13:23:13.444Z,100936.97
2023-04-26T13:25:42.298Z,100936.50
2023-04-26T13:28:10.253Z,100926.63
2023-04-26T13:30:37.962Z,100935.78
2023-04-26T13:33:05.777Z,100924.28
2023-04-26T13:35:33.516Z,100927.03
2023-04-26T13:38:03.004Z,100913.97
2023-04-26T13:40:30.776Z,100924.31
2023-04-26T13:42:58.513Z,100935.34
2023-04-26T13:45:26.192Z,100921.09
2023-04-26T13:47:54.014Z,100942.13
2023-04-26T13:50:21.689Z,100939.44
2023-04-26T13:52:50.979Z,100920.06
2023-04-26T13:55:20.094Z,100938.34
2023-04-26T13:57:47.741Z,100924.75
2023-04-26T14:00:17.087Z,100919.38
2023-04-26T14:02:45.220Z,100938.16
2023-04-26T14:05:13.269Z,100932.31
2023-04-26T14:07:42.009Z,100932.81
2023-04-26T14:10:10.451Z,100924.78
2023-04-26T14:12:39.811Z,100920.81
2023-04-26T14:15:08.877Z,100899.63
2023-04-26T14:17:37.149Z,100904.03
2023-04-26T14:20:06.728Z,100889.75
2023-04-26T14:22:35.634Z,100909.16
2023-04-26T14:25:03.479Z,100911.25
2023-04-26T14:27:31.239Z,100902.66
2023-04-26T14:30:00.462Z,100925.69
2023-04-26T14:32:28.559Z,100901.59
2023-04-26T14:34:56.253Z,100899.94
2023-04-26T14:37:24.097Z,100919.06
2023-04-26T14:39:52.077Z,100929.22
2023-04-26T14:42:19.764Z,100915.84
2023-04-26T14:44:47.703Z,100894.09
2023-04-26T14:47:16.859Z,100922.13
2023-04-26T14:49:44.583Z,100912.81
2023-04-26T14:52:12.336Z,100901.06
2023-04-26T14:54:40.211Z,100895.38
2023-04-26T14:57:08.016Z,100889.41
2023-04-26T14:59:36.538Z,100889.84
2023-04-26T15:02:05.131Z,100901.09
2023-04-26T15:04:35.752Z,100904.59
2023-04-26T15:07:04.356Z,100919.66
2023-04-26T15:09:32.274Z,100907.94
2023-04-26T15:12:00.028Z,100910.84
2023-04-26T15:14:27.756Z,100920.22
2023-04-26T15:16:55.608Z,100913.31
2023-04-26T15:19:23.332Z,100909.44
2023-04-26T15:21:52.468Z,100917.94
2023-04-26T15:24:20.165Z,100901.00
2023-04-26T15:26:47.971Z,100885.53
2023-04-26T15:29:15.867Z,100899.81
2023-04-26T15:31:43.759Z,100905.81
2023-04-26T15:34:11.505Z,100913.22
2023-04-26T15:36:39.225Z,100908.59
2023-04-26T15:39:08.690Z,100908.94
2023-04-26T15:41:36.692Z,100905.19
2023-04-26T15:44:04.812Z,100905.28
2023-04-26T15:46:32.494Z,100915.00
2023-04-26T15:49:00.204Z,100918.09
2023-04-26T15:51:28.002Z,100894.13
2023-04-26T15:53:55.728Z,100911.75
2023-04-26T15:56:26.198Z,100906.84
2023-04-26T15:58:53.928Z,100891.03
2023-04-26T16:01:21.775Z,100882.44
2023-04-26T16:03:50.010Z,100886.66
2023-04-26T16:06:18.075Z,100903.09
2023-04-26T16:08:45.963Z,100896.91
2023-04-26T16:11:13.836Z,100885.63
2023-04-26T16:13:44.572Z,100898.50
2023-04-26T16:16:12.682Z,100919.97
2023-04-26T16:18:40.732Z,100901.84
2023-04-26T16:21:09.721Z,100909.06
2023-04-26T16:23:38.038Z,100900.25
2023-04-26T16:26:06.213Z,100896.28
2023-04-26T16:28:34.247Z,100902.47
2023-04-26T16:31:03.971Z,100898.88
2023-04-26T16:33:31.993Z,100897.56
2023-04-26T16:35:59.730Z,100889.56
2023-04-26T16:38:27.440Z,100909.53
2023-04-26T16:40:58.092Z,100900.16
2023-04-26T16:43:26.917Z,100898.28
2023-04-26T16:45:59.215Z,100905.97
2023-04-26T16:48:28.640Z,100905.53
2023-04-26T16:50:56.367Z,100897.59
2023-04-26T16:53:24.195Z,100895.28
2023-04-26T16:55:52.245Z,100887.72
2023-04-26T16:58:20.549Z,100900.66
2023-04-26T17:00:48.280Z,100894.88
2023-04-26T17:03:16.289Z,100891.94
2023-04-26T17:05:47.702Z,100898.59
2023-04-26T17:08:15.674Z,100905.00
2023-04-26T17:10:44.358Z,100900.25
2023-04-26T17:13:12.749Z,100895.63
2023-04-26T17:15:41.391Z,100907.97
2023-04-26T17:18:10.144Z,100917.50
2023-04-26T17:20:38.097Z,100904.03
2023-04-26T17:23:08.582Z,100901.53
2023-04-26T17:25:36.410Z,100914.91
2023-04-26T17:28:19.628Z,100921.72
2023-04-26T17:30:47.471Z,100917.31
2023-04-26T17:33:15.173Z,100922.19
2023-04-26T17:35:43.031Z,100906.38
2023-04-26T17:38:12.239Z,100907.97
2023-04-26T17:40:40.380Z,100925.03
2023-04-26T17:43:08.112Z,100923.00
2023-04-26T17:45:35.863Z,100920.81
2023-04-26T17:48:04.460Z,100912.91
2023-04-26T17:50:32.186Z,100932.69
2023-04-26T17:52:59.870Z,100913.28
2023-04-26T17:55:28.976Z,100906.19
2023-04-26T17:57:56.654Z,100922.69
2023-04-26T18:00:24.913Z,100912.09
2023-04-26T18:02:53.825Z,100913.03
2023-04-26T18:05:21.807Z,100913.97
2023-04-26T18:07:49.473Z,100914.91
2023-04-26T18:10:17.208Z,100927.13
2023-04-26T18:12:46.538Z,100929.72
2023-04-26T18:15:15.046Z,100932.44
2023-04-26T18:17:43.825Z,100929.38
2023-04-26T18:20:13.259Z,100924.66
2023-04-26T18:22:41.689Z,100930.63
2023-04-26T18:25:10.021Z,100935.81
2023-04-26T18:27:37.744Z,100924.75
2023-04-26T18:30:08.293Z,100925.81
2023-04-26T18:32:36.066Z,100929.94
2023-04-26T18:35:06.158Z,100928.78
2023-04-26T18:37:34.010Z,100942.47
2023-04-26T18:40:02.006Z,100932.47
2023-04-26T18:42:29.744Z,100924.78
2023-04-26T18:44:57.677Z,100927.38
2023-04-26T18:47:27.333Z,100936.78
2023-04-26T18:49:55.032Z,100938.59
2023-04-26T18:52:22.723Z,100936.75
2023-04-26T18:54:50.691Z,100956.59
2023-04-26T18:57:22.153Z,100949.28
2023-04-26T18:59:49.898Z,100963.22
2023-04-26T19:02:17.920Z,100940.75
2023-04-26T19:04:50.477Z,100947.69
2023-04-26T19:07:18.435Z,100947.31
2023-04-26T19:09:54.326Z,100949.53
2023-04-26T19:12:22.532Z,100943.09
2023-04-26T19:14:50.182Z,100960.75
2023-04-26T19:17:17.851Z,100956.72
2023-04-26T19:19:47.135Z,100962.47
2023-04-26T19:22:14.933Z,100951.19
2023-04-26T19:24:42.602Z,100971.16
2023-04-26T19:27:10.550Z,100964.72
2023-04-26T19:29:38.255Z,100969.28
2023-04-26T19:32:07.328Z,100976.19
2023-04-26T19:34:36.429Z,100988.13
2023-04-26T19:37:05.785Z,100977.22
2023-04-26T19:39:33.683Z,100986.41
2023-04-26T19:42:03.366Z,100978.38
2023-04-26T19:44:31.536Z,100974.75
2023-04-26T19:46:59.834Z,100975.25
2023-04-26T19:49:29.104Z,100979.91
2023-04-26T19:51:57.057Z,100959.06
2023-04-26T19:54:26.329Z,100952.59
2023-04-26T19:56:54.277Z,100956.34
2023-04-26T19:59:21.963Z,100951.72
2023-04-26T20:01:51.029Z,100972.38
2023-04-26T20:04:21.377Z,100971.75
2023-04-26T20:06:49.359Z,100971.38
2023-04-26T20:09:17.278Z,100968.59
2023-04-26T20:11:46.371Z,100983.75
2023-04-26T20:14:14.026Z,100982.75
2023-04-26T20:16:41.775Z,100973.72
2023-04-26T20:19:10.318Z,100988.19
2023-04-26T20:21:38.286Z,100986.41
2023-04-26T20:24:06.920Z,100979.41
2023-04-26T20:26:34.687Z,100991.84
2023-04-26T20:29:03.788Z,100984.94
2023-04-26T20:31:32.558Z,100977.97
2023-04-26T20:34:00.885Z,100976.19
2023-04-26T20:36:28.798Z,100986.44
2023-04-26T20:38:56.620Z,100977.28
2023-04-26T20:41:24.318Z,100979.16
2023-04-26T20:43:53.433Z,100984.47
2023-04-26T20:46:22.938Z,100995.50
2023-04-26T20:48:50.646Z,100993.81
2023-04-26T20:51:18.342Z,100984.66
2023-04-26T20:53:46.227Z,101004.34
2023-04-26T20:56:13.922Z,101003.91
2023-04-26T20:58:41.585Z,101001.41
2023-04-26T21:01:10.165Z,101007.44
2023-04-26T21:03:39.893Z,101001.50
2023-04-26T21:06:07.756Z,100993.47
2023-04-26T21:08:36.794Z,100994.00
2023-04-26T21:11:04.861Z,100982.53
2023-04-26T21:13:32.774Z,100978.56
2023-04-26T21:16:00.692Z,100991.19
2023-04-26T21:18:28.885Z,100997.91
2023-04-26T21:20:58.003Z,101008.72
2023-04-26T21:23:25.679Z,101011.06
2023-04-26T21:25:53.510Z,100999.13
2023-04-26T21:28:21.280Z,101000.53
2023-04-26T21:30:49.008Z,100995.31
2023-04-26T21:33:16.932Z,100995.59
2023-04-26T21:35:44.636Z,100994.06
2023-04-26T21:38:13.729Z,100994.16
2023-04-26T21:40:41.418Z,101002.19
2023-04-26T21:43:09.093Z,100986.22
2023-04-26T21:45:37.010Z,101004.38
2023-04-26T21:48:05.139Z,100998.06
2023-04-26T21:50:32.829Z,100999.50
2023-04-26T21:53:00.528Z,101011.25
2023-04-26T21:55:29.902Z,100998.97
2023-04-26T21:57:57.624Z,101007.66
2023-04-26T22:00:27.088Z,101012.59
2023-04-26T22:02:54.951Z,101000.13
2023-04-26T22:05:25.800Z,101009.38
2023-04-26T22:07:53.813Z,101002.84
2023-04-26T22:10:21.581Z,101009.69
2023-04-26T22:12:50.852Z,101028.75
2023-04-26T22:15:18.592Z,101007.25
2023-04-26T22:17:46.579Z,101025.63
2023-04-26T22:20:14.370Z,101027.06
2023-04-26T22:22:42.059Z,101019.75
2023-04-26T22:25:10.674Z,101027.66
2023-04-26T22:27:38.439Z,101025.31
2023-04-26T22:30:22.777Z,101034.81
2023-04-26T22:32:54.746Z,101029.59
2023-04-26T22:35:22.941Z,101026.19
2023-04-26T22:37:50.738Z,101031.44
2023-04-26T22:40:19.288Z,101034.13
2023-04-26T22:42:47.015Z,101036.22
2023-04-26T22:45:16.216Z,101032.59
2023-04-26T22:47:44.231Z,101030.03
2023-04-26T22:50:12.973Z,101036.22
2023-04-26T22:52:41.050Z,101042.44
2023-04-26T22:55:09.879Z,101025.91
2023-04-26T22:57:37.803Z,101040.94
2023-04-26T23:00:09.569Z,101037.59
2023-04-26T23:02:38.996Z,101027.44
2023-04-26T23:05:09.701Z,101037.13
2023-04-26T23:07:37.702Z,101034.25
2023-04-26T23:10:06.314Z,101045.97
2023-04-26T23:12:34.516Z,101045.53
2023-04-26T23:15:03.649Z,101043.44
2023-04-26T23:17:32.154Z,101049.41
2023-04-26T23:20:01.510Z,101040.81
2023-04-26T23:22:29.233Z,101053.78
2023-04-26T23:24:56.935Z,101061.59
2023-04-26T23:27:25.281Z,101043.09
2023-04-26T23:29:52.936Z,101058.38
2023-04-26T23:32:20.575Z,101049.25
2023-04-26T23:34:48.233Z,101034.13
2023-04-26T23:37:17.333Z,101032.78
2023-04-26T23:39:45.070Z,101034.88
2023-04-26T23:42:26.217Z,101041.44
2023-04-26T23:44:53.854Z,101038.06
2023-04-26T23:47:21.750Z,101043.69
2023-04-26T23:49:49.432Z,101041.78
2023-04-26T23:52:18.716Z,101053.59
2023-04-26T23:54:46.388Z,101052.97
2023-04-26T23:57:14.111Z,101049.28
2023-04-26T23:59:41.768Z,101047.81
